Time,TemperatureF,DewpointF,PressureIn,WindDirection,WindDirectionDegrees,WindSpeedMPH,WindSpeedGustMPH,Humidity,HourlyPrecipIn,Conditions,Clouds,dailyrainin,SoftwareType,DateUTC
2013-05-29 00:08:00,65.9,65.0,29.90,SE,134,4.0,7.0,96,0.00,,,0.00,weatherlink.com 1.10,2013-05-29 04:08:00,
2013-05-29 00:23:00,66.1,65.0,29.90,South,169,2.0,8.0,95,0.00,,,0.00,weatherlink.com 1.10,2013-05-29 04:23:00,
2013-05-29 00:38:00,66.4,65.0,29.89,SSE,155,4.0,10.0,95,0.00,,,0.00,weatherlink.com 1.10,2013-05-29 04:38:00,
2013-05-29 00:53:00,66.7,65.0,29.89,SSW,192,3.0,7.0,94,0.00,,,0.00,weatherlink.com 1.10,2013-05-29 04:53:00,
2013-05-29 01:08:00,67.0,65.0,29.89,SSE,164,6.0,12.0,93,0.00,,,0.00,weatherlink.com 1.10,2013-05-29 05:08:00,
2013-05-29 01:23:00,67.1,65.0,29.89,SSE,165,7.0,12.0,92,0.00,,,0.00,weatherlink.com 1.10,2013-05-29 05:23:00,
2013-05-29 01:38:00,67.1,65.0,29.89,SSE,158,8.0,10.0,92,0.00,,,0.00,weatherlink.com 1.10,2013-05-29 05:38:00,
2013-05-29 01:53:00,67.3,65.0,29.89,SSW,195,7.0,9.0,91,0.00,,,0.00,weatherlink.com 1.10,2013-05-29 05:53:00,
2013-05-29 02:08:00,67.0,64.0,29.89,SSW,198,6.0,10.0,91,0.00,,,0.00,weatherlink.com 1.10,2013-05-29 06:08:00,
2013-05-29 02:23:00,67.0,64.0,29.88,South,188,5.0,12.0,90,0.00,,,0.00,weatherlink.com 1.10,2013-05-29 06:23:00,
2013-05-29 02:38:00,66.9,64.0,29.88,South,187,7.0,10.0,90,0.00,,,0.00,weatherlink.com 1.10,2013-05-29 06:38:00,
2013-05-29 02:53:00,67.3,64.0,29.89,SSW,193,7.0,10.0,89,0.00,,,0.00,weatherlink.com 1.10,2013-05-29 06:53:00,
2013-05-29 03:08:00,67.1,64.0,29.88,South,184,5.0,8.0,89,0.00,,,0.00,weatherlink.com 1.10,2013-05-29 07:08:00,
2013-05-29 03:23:00,66.8,64.0,29.88,SW,216,3.0,10.0,89,0.00,,,0.00,weatherlink.com 1.10,2013-05-29 07:23:00,
2013-05-29 03:38:00,67.0,63.0,29.88,SSW,207,3.0,9.0,88,0.00,,,0.00,weatherlink.com 1.10,2013-05-29 07:38:00,
2013-05-29 03:53:00,67.2,63.0,29.88,SSW,194,5.0,9.0,87,0.00,,,0.00,weatherlink.com 1.10,2013-05-29 07:53:00,
2013-05-29 04:08:00,67.4,63.0,29.88,SW,217,3.0,10.0,86,0.00,,,0.00,weatherlink.com 1.10,2013-05-29 08:08:00,
2013-05-29 04:23:00,67.2,63.0,29.87,South,173,8.0,9.0,86,0.00,,,0.00,weatherlink.com 1.10,2013-05-29 08:23:00,
2013-05-29 04:38:00,67.1,63.0,29.87,South,186,3.0,11.0,86,0.00,,,0.00,weatherlink.com 1.10,2013-05-29 08:38:00,
2013-05-29 04:53:00,67.3,63.0,29.86,South,189,7.0,15.0,85,0.00,,,0.00,weatherlink.com 1.10,2013-05-29 08:53:00,
2013-05-29 05:08:00,67.7,62.0,29.87,SSW,198,5.0,13.0,83,0.00,,,0.00,weatherlink.com 1.10,2013-05-29 09:08:00,
2013-05-29 05:23:00,67.8,63.0,29.89,SSW,204,2.0,9.0,83,0.00,,,0.00,weatherlink.com 1.10,2013-05-29 09:23:00,
2013-05-29 05:38:00,67.7,62.0,29.89,SW,219,3.0,8.0,82,0.00,,,0.00,weatherlink.com 1.10,2013-05-29 09:38:00,
2013-05-29 05:53:00,67.9,62.0,29.90,SW,215,2.0,10.0,82,0.00,,,0.00,weatherlink.com 1.10,2013-05-29 09:53:00,
2013-05-29 06:08:00,68.3,62.0,29.91,SSW,197,1.0,10.0,81,0.00,,,0.00,weatherlink.com 1.10,2013-05-29 10:08:00,
2013-05-29 06:23:00,68.2,62.0,29.92,SW,221,3.0,9.0,81,0.00,,,0.00,weatherlink.com 1.10,2013-05-29 10:23:00,
2013-05-29 06:38:00,68.7,62.0,29.93,SSW,193,3.0,8.0,80,0.00,,,0.00,weatherlink.com 1.10,2013-05-29 10:38:00,
2013-05-29 06:53:00,69.5,63.0,29.93,SSW,204,6.0,7.0,79,0.00,,,0.00,weatherlink.com 1.10,2013-05-29 10:53:00,
2013-05-29 07:08:00,70.6,63.0,29.93,SW,231,1.0,9.0,76,0.00,,,0.00,weatherlink.com 1.10,2013-05-29 11:08:00,
2013-05-29 07:24:00,71.2,63.0,29.94,SSW,200,2.0,7.0,75,0.00,,,0.00,weatherlink.com 1.10,2013-05-29 11:24:00,
2013-05-29 07:39:00,71.0,63.0,29.94,SW,219,2.0,7.0,75,0.00,,,0.00,weatherlink.com 1.10,2013-05-29 11:39:00,
2013-05-29 07:54:00,71.0,63.0,29.94,SSW,196,4.0,8.0,75,0.00,,,0.00,weatherlink.com 1.10,2013-05-29 11:54:00,
2013-05-29 08:09:00,71.9,64.0,29.94,SW,233,0.0,9.0,75,0.00,,,0.00,weatherlink.com 1.10,2013-05-29 12:09:00,
2013-05-29 08:24:00,72.5,64.0,29.94,SW,217,2.0,9.0,74,0.00,,,0.00,weatherlink.com 1.10,2013-05-29 12:24:00,
2013-05-29 08:39:00,73.6,64.0,29.94,SSW,193,6.0,7.0,72,0.00,,,0.00,weatherlink.com 1.10,2013-05-29 12:39:00,
2013-05-29 08:54:00,74.2,64.0,29.95,SW,220,1.0,8.0,70,0.00,,,0.00,weatherlink.com 1.10,2013-05-29 12:54:00,
2013-05-29 09:09:00,75.3,64.0,29.95,SSW,200,5.0,7.0,68,0.00,,,0.00,weatherlink.com 1.10,2013-05-29 13:09:00,
2013-05-29 09:24:00,75.9,64.0,29.95,SW,233,3.0,8.0,67,0.00,,,0.00,weatherlink.com 1.10,2013-05-29 13:24:00,
2013-05-29 09:39:00,77.0,65.0,29.95,South,191,7.0,11.0,66,0.00,,,0.00,weatherlink.com 1.10,2013-05-29 13:39:00,
2013-05-29 09:54:00,76.8,64.0,29.95,SSW,192,5.0,11.0,65,0.00,,,0.00,weatherlink.com 1.10,2013-05-29 13:54:00,
2013-05-29 10:09:00,77.5,65.0,29.95,SW,223,2.0,8.0,66,0.00,,,0.00,weatherlink.com 1.10,2013-05-29 14:09:00,
2013-05-29 10:24:00,77.9,64.0,29.95,SW,217,4.0,11.0,63,0.00,,,0.00,weatherlink.com 1.10,2013-05-29 14:24:00,
2013-05-29 10:39:00,77.1,65.0,29.94,SSW,205,2.0,7.0,66,0.00,,,0.00,weatherlink.com 1.10,2013-05-29 14:39:00,
2013-05-29 10:54:00,76.6,64.0,29.94,SSW,212,2.0,13.0,66,0.00,,,0.00,weatherlink.com 1.10,2013-05-29 14:54:00,
2013-05-29 11:09:00,78.2,66.0,29.95,SSW,202,1.0,6.0,66,0.00,,,0.00,weatherlink.com 1.10,2013-05-29 15:09:00,
2013-05-29 11:24:00,78.5,66.0,29.95,SW,215,4.0,5.0,65,0.00,,,0.00,weatherlink.com 1.10,2013-05-29 15:24:00,
2013-05-29 11:39:00,79.0,66.0,29.96,SSW,205,7.0,9.0,64,0.00,,,0.00,weatherlink.com 1.10,2013-05-29 15:39:00,
2013-05-29 11:54:00,79.5,66.0,29.95,SW,225,3.0,11.0,63,0.00,,,0.00,weatherlink.com 1.10,2013-05-29 15:54:00,
2013-05-29 12:09:00,82.3,66.0,29.95,SW,219,3.0,7.0,59,0.00,,,0.00,weatherlink.com 1.10,2013-05-29 16:09:00,
2013-05-29 12:24:00,83.4,67.0,29.95,WSW,240,3.0,7.0,58,0.00,,,0.00,weatherlink.com 1.10,2013-05-29 16:24:00,
2013-05-29 12:39:00,83.8,67.0,29.95,WSW,247,3.0,5.0,58,0.00,,,0.00,weatherlink.com 1.10,2013-05-29 16:39:00,
2013-05-29 12:54:00,82.9,67.0,29.95,SW,227,2.0,8.0,59,0.00,,,0.00,weatherlink.com 1.10,2013-05-29 16:54:00,
2013-05-29 13:09:00,83.0,69.0,29.95,SSW,209,3.0,11.0,62,0.00,,,0.00,weatherlink.com 1.10,2013-05-29 17:09:00,
2013-05-29 13:24:00,81.8,66.0,29.95,West,268,4.0,11.0,59,0.00,,,0.00,weatherlink.com 1.10,2013-05-29 17:24:00,
2013-05-29 13:39:00,81.8,67.0,29.95,West,273,4.0,7.0,61,0.00,,,0.00,weatherlink.com 1.10,2013-05-29 17:39:00,
2013-05-29 13:54:00,79.1,65.0,29.96,West,274,0.0,9.0,63,0.00,,,0.00,weatherlink.com 1.10,2013-05-29 17:54:00,
2013-05-29 14:09:00,81.5,65.0,29.95,West,276,2.0,8.0,57,0.00,,,0.00,weatherlink.com 1.10,2013-05-29 18:09:00,
2013-05-29 14:24:00,81.8,64.0,29.95,WNW,302,4.0,9.0,55,0.00,,,0.00,weatherlink.com 1.10,2013-05-29 18:24:00,
2013-05-29 14:39:00,81.2,64.0,29.96,WSW,254,6.0,11.0,56,0.00,,,0.00,weatherlink.com 1.10,2013-05-29 18:39:00,
2013-05-29 14:54:00,81.4,63.0,29.96,WNW,292,5.0,15.0,54,0.00,,,0.00,weatherlink.com 1.10,2013-05-29 18:54:00,
2013-05-29 15:10:00,81.5,64.0,29.96,West,276,8.0,16.0,56,0.00,,,0.00,weatherlink.com 1.10,2013-05-29 19:10:00,
2013-05-29 15:24:00,82.4,64.0,29.96,West,269,3.0,16.0,54,0.00,,,0.00,weatherlink.com 1.10,2013-05-29 19:24:00,
2013-05-29 15:39:00,81.7,63.0,29.97,WNW,292,3.0,13.0,54,0.00,,,0.00,weatherlink.com 1.10,2013-05-29 19:39:00,
2013-05-29 15:54:00,79.3,63.0,29.97,WSW,257,4.0,16.0,58,0.00,,,0.00,weatherlink.com 1.10,2013-05-29 19:54:00,
2013-05-29 16:09:00,80.1,64.0,29.96,WNW,284,1.0,14.0,59,0.00,,,0.00,weatherlink.com 1.10,2013-05-29 20:09:00,
2013-05-29 16:24:00,80.4,64.0,29.96,WNW,301,6.0,15.0,58,0.00,,,0.00,weatherlink.com 1.10,2013-05-29 20:24:00,
2013-05-29 16:39:00,80.3,65.0,29.96,WNW,288,2.0,10.0,59,0.00,,,0.00,weatherlink.com 1.10,2013-05-29 20:39:00,
2013-05-29 16:54:00,81.2,65.0,29.96,WNW,283,8.0,11.0,58,0.00,,,0.00,weatherlink.com 1.10,2013-05-29 20:54:00,
2013-05-29 17:09:00,81.9,65.0,29.96,West,267,5.0,14.0,57,0.00,,,0.00,weatherlink.com 1.10,2013-05-29 21:09:00,
2013-05-29 17:24:00,82.4,65.0,29.96,WSW,240,5.0,16.0,55,0.00,,,0.00,weatherlink.com 1.10,2013-05-29 21:24:00,
2013-05-29 17:40:00,82.2,64.0,29.96,WNW,294,8.0,11.0,55,0.00,,,0.00,weatherlink.com 1.10,2013-05-29 21:40:00,
2013-05-29 17:55:00,81.0,62.0,29.96,WNW,294,6.0,12.0,53,0.00,,,0.00,weatherlink.com 1.10,2013-05-29 21:55:00,
2013-05-29 18:10:00,81.1,62.0,29.96,WNW,297,4.0,9.0,53,0.00,,,0.00,weatherlink.com 1.10,2013-05-29 22:10:00,
2013-05-29 18:25:00,80.7,63.0,29.96,NW,311,2.0,6.0,55,0.00,,,0.00,weatherlink.com 1.10,2013-05-29 22:25:00,
2013-05-29 18:40:00,80.3,63.0,29.97,North,355,2.0,5.0,56,0.00,,,0.00,weatherlink.com 1.10,2013-05-29 22:40:00,
2013-05-29 18:55:00,79.8,63.0,29.97,WNW,296,1.0,4.0,57,0.00,,,0.00,weatherlink.com 1.10,2013-05-29 22:55:00,
2013-05-29 19:10:00,78.9,63.0,29.97,NW,310,0.0,5.0,59,0.00,,,0.00,weatherlink.com 1.10,2013-05-29 23:10:00,
2013-05-29 19:25:00,79.2,64.0,29.97,WNW,284,0.0,3.0,60,0.00,,,0.00,weatherlink.com 1.10,2013-05-29 23:25:00,
2013-05-29 19:40:00,79.5,64.0,29.97,WNW,291,0.0,4.0,60,0.00,,,0.00,weatherlink.com 1.10,2013-05-29 23:40:00,
2013-05-29 19:55:00,78.1,64.0,29.97,WNW,290,1.0,5.0,62,0.00,,,0.00,weatherlink.com 1.10,2013-05-29 23:55:00,
2013-05-29 20:10:00,76.6,63.0,29.98,West,281,1.0,4.0,64,0.00,,,0.00,weatherlink.com 1.10,2013-05-30 00:10:00,
2013-05-29 20:25:00,75.6,64.0,29.97,West,281,0.0,1.0,67,0.00,,,0.00,weatherlink.com 1.10,2013-05-30 00:25:00,
2013-05-29 20:40:00,74.6,63.0,29.97,West,281,0.0,0.0,68,0.00,,,0.00,weatherlink.com 1.10,2013-05-30 00:40:00,
2013-05-29 20:55:00,74.2,63.0,29.97,West,281,0.0,2.0,69,0.00,,,0.00,weatherlink.com 1.10,2013-05-30 00:55:00,
2013-05-29 21:10:00,73.6,66.0,29.97,West,281,0.0,1.0,77,0.00,,,0.00,weatherlink.com 1.10,2013-05-30 01:10:00,
2013-05-29 21:25:00,72.2,65.0,29.97,West,281,0.0,0.0,79,0.00,,,0.00,weatherlink.com 1.10,2013-05-30 01:25:00,
2013-05-29 21:40:00,71.0,65.0,29.97,West,281,0.0,1.0,82,0.00,,,0.00,weatherlink.com 1.10,2013-05-30 01:40:00,
2013-05-29 21:55:00,70.1,65.0,29.97,West,281,0.0,0.0,85,0.00,,,0.00,weatherlink.com 1.10,2013-05-30 01:55:00,
2013-05-29 22:10:00,69.8,65.0,29.98,West,281,0.0,1.0,85,0.00,,,0.00,weatherlink.com 1.10,2013-05-30 02:10:00,
2013-05-29 22:25:00,69.9,65.0,29.98,SSW,211,0.0,3.0,85,0.00,,,0.00,weatherlink.com 1.10,2013-05-30 02:25:00,
2013-05-29 22:40:00,69.6,65.0,29.98,SSW,197,0.0,2.0,86,0.00,,,0.00,weatherlink.com 1.10,2013-05-30 02:40:00,
2013-05-29 22:55:00,69.6,65.0,29.99,South,183,1.0,3.0,86,0.00,,,0.00,weatherlink.com 1.10,2013-05-30 02:55:00,
2013-05-29 23:10:00,69.9,65.0,29.99,South,182,2.0,2.0,85,0.00,,,0.00,weatherlink.com 1.10,2013-05-30 03:10:00,
2013-05-29 23:25:00,69.9,65.0,29.99,South,188,0.0,3.0,84,0.00,,,0.00,weatherlink.com 1.10,2013-05-30 03:25:00,
2013-05-29 23:40:00,69.5,65.0,29.99,South,188,0.0,1.0,85,0.00,,,0.00,weatherlink.com 1.10,2013-05-30 03:40:00,
2013-05-29 23:55:00,68.1,65.0,30.00,South,188,0.0,1.0,89,0.00,,,0.00,weatherlink.com 1.10,2013-05-30 03:55:00,